Time;durP1;ratioP1;P1;durP2;ratioP2;P2;SDS_P1;SDS_P2;PMS_P1;PMS_P2;Temp;Humidity;BMP_temperature;BMP_pressure;BME280_temperature;BME280_humidity;BME280_pressure;Samples;Min_cycle;Max_cycle;Signal;HPM_P1;HPM_P2
2021/12/18 00:01:24;;;;;;;22.87;12.60;;;2.60;99.90;;;;;;5022921;28;20643;-59
2021/12/18 00:03:49;;;;;;;21.43;12.20;;;2.60;99.90;;;;;;5030947;28;20434;-59
2021/12/18 00:06:15;;;;;;;22.70;12.33;;;2.60;99.90;;;;;;5027989;28;20466;-60
2021/12/18 00:08:41;;;;;;;23.40;12.80;;;2.60;99.90;;;;;;5029612;28;20171;-59
2021/12/18 00:11:07;;;;;;;26.57;13.80;;;2.50;99.90;;;;;;5026721;28;20814;-65
2021/12/18 00:13:33;;;;;;;22.77;12.90;;;2.50;99.90;;;;;;5029497;28;20434;-60
2021/12/18 00:15:59;;;;;;;26.00;13.00;;;2.50;99.90;;;;;;5025710;28;20437;-58
2021/12/18 00:18:25;;;;;;;26.97;13.80;;;2.50;99.90;;;;;;5023776;28;20452;-59
2021/12/18 00:20:51;;;;;;;24.80;12.63;;;2.40;99.90;;;;;;5029353;28;20192;-60
2021/12/18 00:23:17;;;;;;;21.97;12.33;;;2.40;99.90;;;;;;5027848;28;20266;-60
2021/12/18 00:25:43;;;;;;;27.23;13.23;;;2.40;99.90;;;;;;5020780;28;20208;-59
2021/12/18 00:28:09;;;;;;;24.40;13.20;;;2.30;99.90;;;;;;5024753;28;20769;-58
2021/12/18 00:30:36;;;;;;;26.23;13.33;;;2.30;99.90;;;;;;5021477;28;20955;-59
2021/12/18 00:33:02;;;;;;;23.43;13.53;;;2.30;99.90;;;;;;5024192;28;20441;-59
2021/12/18 00:35:28;;;;;;;26.17;13.10;;;2.30;99.90;;;;;;5023894;28;20434;-60
2021/12/18 00:37:53;;;;;;;21.77;11.73;;;2.30;99.90;;;;;;5026948;28;20870;-58
2021/12/18 00:40:23;;;;;;;23.50;12.27;;;2.20;99.90;;;;;;5022692;28;20183;-59
2021/12/18 00:43:02;;;;;;;25.23;13.80;;;2.20;99.90;;;;;;5021417;28;20180;-59
2021/12/18 00:45:29;;;;;;;23.90;12.80;;;2.20;99.90;;;;;;5023964;28;20493;-59
2021/12/18 00:47:55;;;;;;;27.73;13.10;;;2.20;99.90;;;;;;5022719;28;20493;-59
2021/12/18 00:50:24;;;;;;;24.13;12.80;;;2.20;99.90;;;;;;5022414;28;20984;-59
2021/12/18 00:52:50;;;;;;;27.90;13.50;;;2.20;99.90;;;;;;5029069;28;20422;-58
2021/12/18 00:55:16;;;;;;;25.50;13.83;;;2.20;99.90;;;;;;5034271;28;20433;-59
2021/12/18 00:57:44;;;;;;;28.50;13.67;;;2.20;99.90;;;;;;5023938;28;20200;-58
2021/12/18 01:00:13;;;;;;;22.83;12.03;;;2.20;99.90;;;;;;5021344;28;20459;-59
2021/12/18 01:02:43;;;;;;;26.37;12.60;;;2.10;99.90;;;;;;5024822;28;21106;-60
2021/12/18 01:05:10;;;;;;;25.77;12.93;;;2.10;99.90;;;;;;5023609;28;20983;-59
2021/12/18 01:07:36;;;;;;;22.10;11.97;;;2.10;99.90;;;;;;5030014;28;20806;-60
2021/12/18 01:10:19;;;;;;;27.17;12.87;;;2.10;99.90;;;;;;5029910;28;20433;-59
2021/12/18 01:12:48;;;;;;;24.47;12.00;;;2.10;99.90;;;;;;5025390;28;20475;-58
2021/12/18 01:15:22;;;;;;;27.93;12.50;;;2.00;99.90;;;;;;5028895;28;20463;-64
2021/12/18 01:23:18;;;;;;;22.60;11.47;;;2.00;99.90;;;;;;5025839;28;20918;-59
2021/12/18 01:25:44;;;;;;;26.80;13.73;;;2.00;99.90;;;;;;5052274;28;20461;-59
2021/12/18 01:28:10;;;;;;;25.70;13.67;;;2.00;99.90;;;;;;5057038;28;20457;-59
2021/12/18 01:30:35;;;;;;;26.57;14.00;;;2.00;99.90;;;;;;5047957;28;20435;-60
2021/12/18 01:33:02;;;;;;;26.57;13.80;;;2.00;99.90;;;;;;5042898;28;20228;-59
2021/12/18 01:35:27;;;;;;;29.53;14.87;;;2.00;99.90;;;;;;5029647;28;20277;-58
2021/12/18 01:37:53;;;;;;;31.90;14.47;;;2.00;99.90;;;;;;5030074;28;20966;-59
2021/12/18 01:40:21;;;;;;;28.87;13.87;;;2.00;99.90;;;;;;5029076;28;20218;-58
2021/12/18 01:53:26;;;;;;;28.27;13.90;;;2.00;99.90;;;;;;5029539;28;20424;-59
2021/12/18 01:55:52;;;;;;;24.83;13.70;;;2.00;99.90;;;;;;5029584;28;20908;-58
2021/12/18 01:58:21;;;;;;;27.93;15.07;;;2.00;99.90;;;;;;5030126;28;20228;-59
2021/12/18 02:00:49;;;;;;;26.63;12.93;;;1.90;99.90;;;;;;5026618;28;20434;-59
2021/12/18 02:03:15;;;;;;;27.47;14.40;;;1.90;99.90;;;;;;5028088;28;20425;-60
2021/12/18 02:05:40;;;;;;;25.17;13.10;;;1.90;99.90;;;;;;5029121;28;21116;-59
2021/12/18 02:08:06;;;;;;;28.10;14.80;;;1.90;99.90;;;;;;5028925;28;20195;-58
2021/12/18 02:10:43;;;;;;;30.40;13.97;;;1.90;99.90;;;;;;5026961;28;20554;-59
2021/12/18 02:13:21;;;;;;;31.47;13.90;;;1.90;99.90;;;;;;5029744;28;20478;-59
2021/12/18 02:21:20;;;;;;;29.47;14.90;;;1.80;99.90;;;;;;5027975;28;20510;-59
2021/12/18 02:23:46;;;;;;;32.87;15.53;;;1.80;99.90;;;;;;5029389;28;20985;-59
2021/12/18 02:26:13;;;;;;;30.83;15.80;;;1.80;99.90;;;;;;5028332;28;20541;-59
2021/12/18 02:28:41;;;;;;;33.50;14.07;;;1.90;99.90;;;;;;5025249;28;20703;-59
2021/12/18 02:31:07;;;;;;;30.60;16.23;;;1.90;99.90;;;;;;5025935;28;20452;-59
2021/12/18 02:33:33;;;;;;;32.00;15.50;;;1.90;99.90;;;;;;5028176;28;20457;-58
2021/12/18 02:36:03;;;;;;;27.97;14.27;;;1.90;99.90;;;;;;5028003;28;20168;-59
2021/12/18 02:41:42;;;;;;;30.27;14.90;;;1.90;99.90;;;;;;5027004;28;20563;-58
2021/12/18 02:44:10;;;;;;;33.83;16.33;;;1.90;99.90;;;;;;5026218;28;20419;-58
2021/12/18 02:46:38;;;;;;;29.07;14.70;;;1.90;99.90;;;;;;5027044;28;20849;-57
2021/12/18 02:49:12;;;;;;;29.73;14.10;;;1.90;99.90;;;;;;5024822;28;20776;-59
2021/12/18 02:51:38;;;;;;;29.73;15.27;;;1.90;99.90;;;;;;5026733;28;20428;-59
2021/12/18 02:54:04;;;;;;;24.93;13.37;;;1.90;99.90;;;;;;5028449;28;20506;-58
2021/12/18 02:56:30;;;;;;;27.63;13.83;;;1.90;99.90;;;;;;5026844;28;20514;-57
2021/12/18 02:59:05;;;;;;;28.23;14.47;;;1.90;99.90;;;;;;5027226;28;20460;-59
2021/12/18 03:01:32;;;;;;;31.53;14.80;;;1.80;99.90;;;;;;5023349;28;20434;-58
2021/12/18 03:04:00;;;;;;;28.60;14.13;;;1.80;99.90;;;;;;5024988;28;20879;-57
2021/12/18 03:06:39;;;;;;;27.70;14.27;;;1.80;99.90;;;;;;5022409;28;20517;-57
2021/12/18 03:23:03;;;;;;;30.83;14.90;;;1.80;99.90;;;;;;5048348;28;21193;-59
2021/12/18 03:25:32;;;;;;;33.77;15.43;;;1.70;99.90;;;;;;5027100;28;21373;-58
2021/12/18 03:27:59;;;;;;;30.20;14.87;;;1.80;99.90;;;;;;5028476;28;20433;-58
2021/12/18 03:30:25;;;;;;;29.27;15.13;;;1.80;99.90;;;;;;5024789;28;20479;-58
2021/12/18 03:32:51;;;;;;;32.73;15.73;;;1.80;99.90;;;;;;5024055;28;20484;-59
2021/12/18 03:35:17;;;;;;;34.40;16.60;;;1.80;99.90;;;;;;5025191;28;20423;-58
2021/12/18 03:37:43;;;;;;;27.90;14.20;;;1.70;99.90;;;;;;5036126;22;20313;-60
2021/12/18 03:40:12;;;;;;;30.40;15.43;;;1.70;99.90;;;;;;5014284;28;20431;-59
2021/12/18 03:42:38;;;;;;;33.03;15.80;;;1.70;99.90;;;;;;5030296;28;20471;-57
2021/12/18 03:45:06;;;;;;;29.93;14.60;;;1.60;99.90;;;;;;5013037;28;20409;-59
2021/12/18 03:47:32;;;;;;;34.43;15.53;;;1.60;99.90;;;;;;5021473;28;20574;-59
2021/12/18 03:49:58;;;;;;;30.73;14.60;;;1.60;99.90;;;;;;5009013;28;20411;-59
2021/12/18 03:52:24;;;;;;;33.70;15.80;;;1.60;99.90;;;;;;5009419;28;20536;-59
2021/12/18 03:54:49;;;;;;;34.37;15.43;;;1.60;99.90;;;;;;5008730;28;20176;-59
2021/12/18 03:57:15;;;;;;;34.77;14.50;;;1.60;99.90;;;;;;5008728;28;20200;-59
2021/12/18 03:59:41;;;;;;;30.97;15.43;;;1.60;99.90;;;;;;5009009;28;20187;-60
2021/12/18 04:02:07;;;;;;;30.93;14.60;;;1.60;99.90;;;;;;5008058;28;20187;-59
2021/12/18 04:04:32;;;;;;;25.87;13.50;;;1.60;99.90;;;;;;5008834;28;20203;-59
2021/12/18 04:06:59;;;;;;;28.80;14.53;;;1.60;99.90;;;;;;5008460;28;20243;-59
2021/12/18 04:09:28;;;;;;;29.93;15.50;;;1.60;99.90;;;;;;5007576;28;20217;-61
2021/12/18 04:11:54;;;;;;;30.60;14.27;;;1.60;99.90;;;;;;5007712;28;20422;-59
2021/12/18 04:14:20;;;;;;;37.77;17.20;;;1.50;99.90;;;;;;5008528;28;20410;-59
2021/12/18 04:16:45;;;;;;;34.63;14.53;;;1.50;99.90;;;;;;5005569;28;20197;-59
2021/12/18 04:19:11;;;;;;;33.70;16.23;;;1.50;99.90;;;;;;5007476;28;20234;-59
2021/12/18 04:21:37;;;;;;;38.70;16.47;;;1.60;99.90;;;;;;5007595;28;20263;-59
2021/12/18 04:24:03;;;;;;;30.90;15.50;;;1.60;99.90;;;;;;5007564;28;20189;-60
2021/12/18 04:26:30;;;;;;;29.77;14.87;;;1.60;99.90;;;;;;5009230;28;20202;-59
2021/12/18 04:28:56;;;;;;;31.20;13.93;;;1.50;99.90;;;;;;5007604;28;20435;-59
2021/12/18 04:31:22;;;;;;;26.37;14.07;;;1.50;99.90;;;;;;5007885;28;20798;-59
2021/12/18 04:33:47;;;;;;;31.70;14.60;;;1.50;99.90;;;;;;5007943;28;20265;-59
2021/12/18 04:36:13;;;;;;;28.23;14.40;;;1.50;99.90;;;;;;5007829;28;20182;-59
2021/12/18 04:38:39;;;;;;;31.20;15.17;;;1.50;99.90;;;;;;5008159;28;20606;-59
2021/12/18 04:41:06;;;;;;;28.03;13.20;;;1.40;99.90;;;;;;5006898;28;20426;-58
2021/12/18 04:43:34;;;;;;;26.17;14.07;;;1.50;99.90;;;;;;5009076;28;20172;-60
2021/12/18 04:46:00;;;;;;;35.30;14.77;;;1.40;99.90;;;;;;5007480;28;20467;-59
2021/12/18 04:48:26;;;;;;;27.77;13.90;;;1.40;99.90;;;;;;5006494;28;20793;-59
2021/12/18 04:50:51;;;;;;;30.33;15.00;;;1.30;99.90;;;;;;5006000;28;20561;-59
2021/12/18 04:53:17;;;;;;;33.00;14.90;;;1.30;99.90;;;;;;5009020;28;20687;-58
2021/12/18 04:55:43;;;;;;;29.60;14.00;;;1.30;99.90;;;;;;5007371;28;20261;-59
2021/12/18 04:58:08;;;;;;;31.80;14.03;;;1.30;99.90;;;;;;5006075;28;20195;-59
2021/12/18 05:00:39;;;;;;;32.40;14.33;;;1.20;99.90;;;;;;5005869;28;20214;-59
2021/12/18 05:03:10;;;;;;;30.80;13.70;;;1.20;99.90;;;;;;5005943;28;20187;-60
2021/12/18 05:05:36;;;;;;;29.17;14.10;;;1.20;99.90;;;;;;5005721;28;20469;-59
2021/12/18 05:08:03;;;;;;;33.70;14.17;;;1.20;99.90;;;;;;5008933;28;20805;-58
2021/12/18 05:10:30;;;;;;;31.07;14.60;;;1.10;99.90;;;;;;5007259;28;20422;-60
2021/12/18 05:12:56;;;;;;;30.97;14.03;;;1.10;99.90;;;;;;5006078;28;20482;-59
2021/12/18 05:15:22;;;;;;;28.57;13.73;;;1.10;99.90;;;;;;5006334;28;20546;-57
2021/12/18 05:17:47;;;;;;;33.30;14.57;;;1.00;99.90;;;;;;5006431;28;20911;-60
2021/12/18 05:20:13;;;;;;;27.70;13.23;;;1.00;99.90;;;;;;5004593;28;20191;-60
2021/12/18 05:22:39;;;;;;;33.23;14.90;;;0.90;99.90;;;;;;5006096;28;20574;-59
2021/12/18 05:25:06;;;;;;;29.30;13.90;;;0.90;99.90;;;;;;5005813;28;20445;-60
2021/12/18 05:27:33;;;;;;;27.43;12.80;;;0.90;99.90;;;;;;5018471;28;20202;-59
2021/12/18 05:29:58;;;;;;;29.43;14.37;;;0.90;99.90;;;;;;5005620;28;20430;-59
2021/12/18 05:32:24;;;;;;;31.20;14.00;;;0.90;99.90;;;;;;5005290;28;20438;-59
2021/12/18 05:34:50;;;;;;;30.07;13.50;;;0.90;99.90;;;;;;5003353;28;20186;-60
2021/12/18 05:39:41;;;;;;;27.63;12.80;;;0.90;99.90;;;;;;5005339;28;20206;-59
2021/12/18 05:42:07;;;;;;;25.60;14.07;;;0.90;99.90;;;;;;5003470;28;20186;-60
2021/12/18 05:44:33;;;;;;;32.30;14.30;;;0.90;99.90;;;;;;5006652;28;20457;-57
2021/12/18 05:46:59;;;;;;;28.10;13.77;;;0.90;99.90;;;;;;5003381;28;21003;-59
2021/12/18 05:49:25;;;;;;;29.90;13.27;;;0.90;99.90;;;;;;5003609;28;20513;-58
2021/12/18 05:51:51;;;;;;;30.80;14.27;;;0.80;99.90;;;;;;5005831;28;20171;-59
2021/12/18 05:54:17;;;;;;;31.83;13.50;;;0.80;99.90;;;;;;5004374;28;20182;-59
2021/12/18 05:56:43;;;;;;;28.83;13.97;;;0.80;99.90;;;;;;5005518;28;20544;-59
2021/12/18 05:59:08;;;;;;;27.00;13.10;;;0.80;99.90;;;;;;5003653;28;20971;-59
2021/12/18 06:01:34;;;;;;;22.90;10.33;;;0.80;99.90;;;;;;4999896;28;20745;-59
2021/12/18 06:04:00;;;;;;;28.23;13.30;;;0.80;99.90;;;;;;5003066;28;20522;-57
2021/12/18 06:06:26;;;;;;;31.50;13.13;;;0.80;99.90;;;;;;5007644;28;20545;-59
2021/12/18 06:08:52;;;;;;;32.07;13.17;;;0.70;99.90;;;;;;5007308;28;20714;-58
2021/12/18 06:11:21;;;;;;;32.83;12.90;;;0.70;99.90;;;;;;5004059;28;20445;-59
2021/12/18 06:13:50;;;;;;;28.27;12.03;;;0.70;99.90;;;;;;5007331;28;20562;-59
2021/12/18 06:16:18;;;;;;;26.40;12.50;;;0.70;99.90;;;;;;5003353;28;20978;-59
2021/12/18 06:18:47;;;;;;;27.90;12.10;;;0.70;99.90;;;;;;5002817;28;20524;-59
2021/12/18 06:21:13;;;;;;;24.20;11.60;;;0.70;99.90;;;;;;4998618;28;20451;-58
2021/12/18 06:23:43;;;;;;;26.17;11.90;;;0.70;99.90;;;;;;5005815;28;20797;-57
2021/12/18 06:26:10;;;;;;;28.40;12.67;;;0.70;99.90;;;;;;5002203;28;20465;-58
2021/12/18 06:28:36;;;;;;;27.13;12.67;;;0.70;99.90;;;;;;4999922;28;20461;-60
2021/12/18 06:31:02;;;;;;;28.50;12.47;;;0.60;99.90;;;;;;4998109;28;20429;-60
2021/12/18 06:33:28;;;;;;;29.43;12.50;;;0.60;99.90;;;;;;5002010;28;20179;-59
2021/12/18 06:35:55;;;;;;;30.07;12.70;;;0.60;99.90;;;;;;5001831;28;20453;-58
2021/12/18 06:38:21;;;;;;;24.97;11.03;;;0.60;99.90;;;;;;4994374;28;20480;-61
2021/12/18 06:40:47;;;;;;;21.17;10.13;;;0.60;99.90;;;;;;5002449;28;20431;-59
2021/12/18 06:43:13;;;;;;;26.63;12.20;;;0.60;99.90;;;;;;4999884;28;20975;-60
2021/12/18 06:45:38;;;;;;;22.10;11.53;;;0.60;99.90;;;;;;5001906;28;20204;-60
2021/12/18 06:48:05;;;;;;;23.40;10.53;;;0.60;99.90;;;;;;4996438;28;20258;-59
2021/12/18 06:50:31;;;;;;;20.47;10.70;;;0.60;99.90;;;;;;4995295;28;20186;-59
2021/12/18 06:52:56;;;;;;;28.03;11.77;;;0.60;99.90;;;;;;5001773;28;20439;-59
2021/12/18 06:55:22;;;;;;;24.37;11.40;;;0.60;99.90;;;;;;5003867;28;20947;-60
2021/12/18 06:57:48;;;;;;;27.63;11.23;;;0.60;99.90;;;;;;4999633;28;20203;-59
2021/12/18 07:00:15;;;;;;;25.37;11.97;;;0.60;99.90;;;;;;5001203;28;20440;-60
2021/12/18 07:02:42;;;;;;;25.23;11.60;;;0.50;99.90;;;;;;4999521;28;20278;-60
2021/12/18 07:05:08;;;;;;;24.97;11.90;;;0.50;99.90;;;;;;4999256;28;20434;-60
2021/12/18 07:07:35;;;;;;;26.50;11.97;;;0.50;99.90;;;;;;5001380;28;20455;-60
2021/12/18 07:10:01;;;;;;;28.90;11.63;;;0.50;99.90;;;;;;5002041;28;20544;-60
2021/12/18 07:12:26;;;;;;;23.30;10.57;;;0.60;99.90;;;;;;5001135;28;20512;-60
2021/12/18 07:14:52;;;;;;;25.30;11.80;;;0.50;99.90;;;;;;5001190;28;20956;-59
2021/12/18 07:17:18;;;;;;;21.97;10.77;;;0.50;99.90;;;;;;4999919;28;20195;-59
2021/12/18 07:19:43;;;;;;;26.60;11.57;;;0.50;99.90;;;;;;4996377;28;20482;-61
2021/12/18 07:22:09;;;;;;;25.20;12.93;;;0.50;99.90;;;;;;4997053;28;20187;-60
2021/12/18 07:24:35;;;;;;;26.00;11.70;;;0.50;99.90;;;;;;5000043;28;20186;-61
2021/12/18 07:27:00;;;;;;;25.93;10.67;;;0.50;99.90;;;;;;4997707;28;20241;-61
2021/12/18 07:29:26;;;;;;;24.53;10.33;;;0.50;99.90;;;;;;4999283;28;20201;-60
2021/12/18 07:31:52;;;;;;;24.20;10.40;;;0.50;99.90;;;;;;5001351;28;20243;-60
2021/12/18 07:34:17;;;;;;;25.40;12.50;;;0.50;99.90;;;;;;5000715;28;20183;-61
2021/12/18 07:36:44;;;;;;;24.90;11.40;;;0.50;99.90;;;;;;5000267;28;20214;-61
2021/12/18 07:39:10;;;;;;;24.10;11.60;;;0.50;99.90;;;;;;4999002;28;20187;-61
2021/12/18 07:41:37;;;;;;;26.80;11.10;;;0.50;99.90;;;;;;4999288;28;20452;-61
2021/12/18 07:44:03;;;;;;;25.63;11.60;;;0.50;99.90;;;;;;4999330;28;20794;-62
2021/12/18 07:46:29;;;;;;;20.90;9.73;;;0.50;99.90;;;;;;4993636;28;20476;-58
2021/12/18 07:48:55;;;;;;;21.77;11.00;;;0.50;99.90;;;;;;4996194;28;20433;-61
2021/12/18 07:51:21;;;;;;;27.23;11.23;;;0.60;99.90;;;;;;4994142;28;20437;-60
2021/12/18 07:53:46;;;;;;;24.30;10.37;;;0.60;99.90;;;;;;4988166;28;20183;-61
2021/12/18 07:56:12;;;;;;;19.63;9.90;;;0.60;99.90;;;;;;4989624;28;20184;-61
2021/12/18 07:58:39;;;;;;;20.47;9.70;;;0.60;99.90;;;;;;4987477;28;20230;-60
2021/12/18 08:01:05;;;;;;;26.67;11.07;;;0.60;99.90;;;;;;4984231;28;21551;-61
2021/12/18 08:03:31;;;;;;;17.70;9.40;;;0.70;99.90;;;;;;4989169;28;20444;-61
2021/12/18 08:05:56;;;;;;;21.03;9.50;;;0.70;99.90;;;;;;4990068;28;20211;-62
2021/12/18 08:08:22;;;;;;;21.70;10.03;;;0.70;99.90;;;;;;4998386;28;20280;-61
2021/12/18 08:10:48;;;;;;;19.43;10.27;;;0.70;99.90;;;;;;4999669;28;20801;-60
2021/12/18 08:13:13;;;;;;;22.37;10.40;;;0.70;99.90;;;;;;5002899;28;20171;-61
2021/12/18 08:15:39;;;;;;;22.83;10.17;;;0.70;99.90;;;;;;5000714;28;20207;-61
2021/12/18 08:18:07;;;;;;;31.13;14.47;;;0.70;99.90;;;;;;5000884;28;21709;-60
2021/12/18 08:20:35;;;;;;;31.20;16.00;;;0.70;99.90;;;;;;4999884;28;20504;-62
2021/12/18 08:23:01;;;;;;;32.27;15.17;;;0.70;99.90;;;;;;4999761;28;21105;-61
2021/12/18 08:25:30;;;;;;;29.17;14.50;;;0.70;99.90;;;;;;5003580;28;20519;-61
2021/12/18 08:27:59;;;;;;;29.20;14.97;;;0.70;99.90;;;;;;5007271;28;20468;-61
2021/12/18 08:30:26;;;;;;;29.30;13.97;;;0.70;99.90;;;;;;5005598;28;20441;-61
2021/12/18 08:32:52;;;;;;;27.83;12.97;;;0.60;99.90;;;;;;5006233;28;20429;-61
2021/12/18 08:35:18;;;;;;;26.13;12.03;;;0.60;99.90;;;;;;5004387;28;20448;-61
2021/12/18 08:37:44;;;;;;;27.30;13.27;;;0.60;99.90;;;;;;5005021;28;20260;-61
2021/12/18 08:40:11;;;;;;;28.53;13.50;;;0.60;99.90;;;;;;5005929;28;20441;-61
2021/12/18 08:42:37;;;;;;;33.27;14.87;;;0.70;99.90;;;;;;5006725;28;20661;-60
2021/12/18 08:45:03;;;;;;;29.47;14.40;;;0.70;99.90;;;;;;5005961;28;20506;-61
2021/12/18 08:47:29;;;;;;;26.07;13.30;;;0.80;99.90;;;;;;5003463;28;20475;-62
2021/12/18 08:49:55;;;;;;;30.90;14.87;;;0.80;99.90;;;;;;5004207;28;20437;-61
2021/12/18 08:52:21;;;;;;;33.27;15.10;;;0.80;99.90;;;;;;5007072;28;20437;-61
2021/12/18 08:54:47;;;;;;;30.80;13.33;;;0.80;99.90;;;;;;5006598;28;20184;-61
2021/12/18 08:57:13;;;;;;;25.80;13.30;;;0.80;99.90;;;;;;5006318;28;20480;-61
2021/12/18 08:59:39;;;;;;;29.00;13.97;;;0.80;99.90;;;;;;5004174;28;20450;-60
2021/12/18 09:02:06;;;;;;;29.20;13.40;;;0.80;99.90;;;;;;5004255;28;20296;-62
2021/12/18 09:04:32;;;;;;;28.17;14.10;;;0.90;99.90;;;;;;5005714;28;20437;-61
2021/12/18 09:06:58;;;;;;;26.23;11.33;;;1.00;99.90;;;;;;5007238;28;20539;-61
2021/12/18 09:09:23;;;;;;;26.10;12.67;;;1.00;99.90;;;;;;5007957;28;20228;-59
2021/12/18 09:11:49;;;;;;;26.83;13.13;;;1.00;99.90;;;;;;5005680;28;20343;-61
2021/12/18 09:14:15;;;;;;;25.93;13.63;;;1.10;99.90;;;;;;5007662;28;20219;-60
2021/12/18 09:16:40;;;;;;;30.27;15.50;;;1.10;99.90;;;;;;5002296;28;20210;-60
2021/12/18 09:19:06;;;;;;;22.87;11.93;;;1.20;99.90;;;;;;5006461;28;20230;-60
2021/12/18 09:21:32;;;;;;;28.63;12.20;;;1.30;99.90;;;;;;5005435;28;20178;-61
2021/12/18 09:23:58;;;;;;;32.63;13.50;;;1.30;99.90;;;;;;5007621;28;20181;-61
2021/12/18 09:26:23;;;;;;;22.13;12.13;;;1.40;99.90;;;;;;5007508;28;20199;-59
2021/12/18 09:28:49;;;;;;;25.37;12.60;;;1.40;99.90;;;;;;5007408;28;20253;-59
2021/12/18 09:31:15;;;;;;;26.03;12.73;;;1.50;99.90;;;;;;5004317;28;20216;-61
2021/12/18 09:33:41;;;;;;;18.87;10.23;;;1.60;99.90;;;;;;5006613;28;20179;-60
2021/12/18 09:36:07;;;;;;;20.53;10.50;;;1.60;99.90;;;;;;5004324;28;20422;-61
2021/12/18 09:38:33;;;;;;;22.60;11.50;;;1.70;99.90;;;;;;5007506;28;20462;-62
2021/12/18 09:40:59;;;;;;;19.20;10.17;;;1.70;99.90;;;;;;5002311;28;20176;-61
2021/12/18 09:43:26;;;;;;;18.53;10.87;;;1.80;99.90;;;;;;5006022;28;20202;-61
2021/12/18 09:45:52;;;;;;;22.67;10.50;;;1.80;99.90;;;;;;5001386;28;20511;-61
2021/12/18 09:48:19;;;;;;;23.17;10.67;;;2.00;99.90;;;;;;4995457;28;20447;-60
2021/12/18 09:50:48;;;;;;;20.20;10.80;;;2.10;99.90;;;;;;5000182;28;20439;-61
2021/12/18 09:53:14;;;;;;;20.83;9.97;;;2.10;99.90;;;;;;5003570;28;20438;-61
2021/12/18 09:55:40;;;;;;;23.30;9.90;;;2.20;99.90;;;;;;5000911;28;20470;-61
2021/12/18 09:58:05;;;;;;;20.90;11.03;;;2.30;99.90;;;;;;4998936;28;20268;-62
2021/12/18 10:00:31;;;;;;;20.27;10.37;;;2.40;99.90;;;;;;4997572;28;20191;-62
2021/12/18 10:02:57;;;;;;;22.33;12.17;;;2.50;99.90;;;;;;5000453;28;20214;-60
2021/12/18 10:05:30;;;;;;;20.80;11.47;;;2.50;99.90;;;;;;4994967;28;20512;-61
2021/12/18 10:08:13;;;;;;;22.70;11.87;;;2.70;99.90;;;;;;4990663;28;20983;-58
2021/12/18 10:11:01;;;;;;;19.80;10.53;;;2.70;99.90;;;;;;4992131;28;20435;-62
2021/12/18 10:13:27;;;;;;;21.43;9.90;;;2.80;99.90;;;;;;4996464;28;20465;-61
2021/12/18 10:16:11;;;;;;;21.33;11.83;;;2.90;99.90;;;;;;4997910;28;20454;-63
2021/12/18 10:18:37;;;;;;;27.57;10.67;;;3.00;99.90;;;;;;4999947;28;20961;-61
2021/12/18 10:21:21;;;;;;;20.50;10.30;;;3.00;99.90;;;;;;5000483;28;20435;-62
2021/12/18 10:23:50;;;;;;;18.40;9.90;;;3.10;99.90;;;;;;5003340;28;21088;-60
2021/12/18 10:26:36;;;;;;;22.60;10.33;;;3.20;99.90;;;;;;5001484;28;20471;-59
2021/12/18 10:29:21;;;;;;;21.33;10.90;;;3.30;99.90;;;;;;5001850;28;20569;-61
2021/12/18 10:31:48;;;;;;;24.83;11.20;;;3.50;99.90;;;;;;4999828;28;20423;-63
2021/12/18 10:34:27;;;;;;;20.10;10.60;;;3.60;99.90;;;;;;5000123;28;20442;-61
2021/12/18 10:37:28;;;;;;;23.20;11.60;;;3.70;99.90;;;;;;4996704;28;21039;-59
2021/12/18 10:39:54;;;;;;;24.13;11.50;;;3.80;99.90;;;;;;4992642;28;21039;-59
2021/12/18 10:42:19;;;;;;;23.60;11.53;;;4.00;99.90;;;;;;4993085;28;20442;-59
2021/12/18 10:45:04;;;;;;;25.53;11.77;;;4.10;99.90;;;;;;4991187;28;20652;-60
2021/12/18 10:47:48;;;;;;;25.50;12.30;;;4.10;99.90;;;;;;4998358;28;20201;-60
2021/12/18 10:50:15;;;;;;;19.63;11.47;;;4.10;99.90;;;;;;4994233;28;20559;-60
2021/12/18 10:52:41;;;;;;;17.10;9.30;;;4.10;99.90;;;;;;4997257;28;21055;-60
2021/12/18 10:55:07;;;;;;;19.80;9.97;;;4.20;99.90;;;;;;5000743;28;20526;-59
2021/12/18 10:57:33;;;;;;;22.07;10.87;;;4.30;99.90;;;;;;5001314;28;20760;-60
2021/12/18 10:59:59;;;;;;;17.27;9.80;;;4.40;99.90;;;;;;5000260;28;20509;-61
2021/12/18 11:02:27;;;;;;;17.23;8.90;;;4.50;99.90;;;;;;4999725;28;20173;-60
2021/12/18 11:05:15;;;;;;;19.40;10.10;;;4.60;99.90;;;;;;5000685;28;20184;-59
2021/12/18 11:07:44;;;;;;;21.57;10.53;;;4.80;99.90;;;;;;4998164;28;20471;-60
2021/12/18 11:15:50;;;;;;;18.00;9.90;;;5.20;99.90;;;;;;4996650;28;20438;-60
2021/12/18 11:18:17;;;;;;;14.00;7.63;;;5.20;99.90;;;;;;4994353;28;20459;-60
2021/12/18 11:20:42;;;;;;;19.23;9.30;;;5.30;99.90;;;;;;4992159;28;23297;-59
2021/12/18 11:23:08;;;;;;;16.93;9.43;;;5.40;99.90;;;;;;4995890;28;20439;-60
2021/12/18 11:25:34;;;;;;;21.53;10.73;;;5.50;99.90;;;;;;4994693;28;20468;-61
2021/12/18 11:28:01;;;;;;;19.30;10.43;;;5.60;99.40;;;;;;5006876;28;20794;-62
2021/12/18 11:30:26;;;;;;;23.53;10.70;;;5.60;99.20;;;;;;5021044;28;20926;-61
2021/12/18 11:32:54;;;;;;;22.00;10.80;;;5.60;98.80;;;;;;5008064;28;20430;-61
2021/12/18 11:35:21;;;;;;;20.20;10.73;;;5.60;98.70;;;;;;5007196;28;20191;-61
2021/12/18 11:37:51;;;;;;;21.10;11.87;;;5.60;99.00;;;;;;4970344;28;1109250;-60
2021/12/18 11:40:21;;;;;;;19.10;10.57;;;5.50;99.10;;;;;;5006393;28;20180;-62
2021/12/18 11:42:46;;;;;;;20.17;10.47;;;5.50;99.60;;;;;;5005735;28;20763;-60
2021/12/18 11:45:12;;;;;;;20.33;10.53;;;5.40;99.60;;;;;;5003634;28;20450;-61
2021/12/18 11:48:04;;;;;;;20.90;10.83;;;5.30;99.60;;;;;;5008711;28;20625;-60
2021/12/18 11:50:37;;;;;;;18.80;10.23;;;5.20;99.90;;;;;;5003462;28;20181;-59
2021/12/18 11:53:17;;;;;;;19.47;10.27;;;5.00;99.90;;;;;;5002077;28;20535;-61
2021/12/18 11:55:49;;;;;;;18.70;9.70;;;4.90;99.90;;;;;;5005341;28;20431;-59
2021/12/18 11:58:23;;;;;;;21.30;10.90;;;4.70;99.90;;;;;;4998289;28;20467;-61
2021/12/18 12:00:59;;;;;;;20.13;10.23;;;4.70;99.90;;;;;;5011531;28;20463;-61
2021/12/18 12:03:36;;;;;;;24.33;11.80;;;4.60;99.90;;;;;;5009131;28;20807;-61
2021/12/18 12:06:18;;;;;;;19.83;11.00;;;4.60;99.90;;;;;;5011732;28;20736;-59
2021/12/18 12:08:44;;;;;;;22.90;11.70;;;4.50;99.90;;;;;;5007089;28;20954;-61
2021/12/18 12:11:27;;;;;;;22.77;11.30;;;4.50;99.90;;;;;;5011261;28;20435;-61
2021/12/18 12:14:02;;;;;;;19.37;10.30;;;4.50;99.90;;;;;;5005337;28;20419;-60
2021/12/18 12:16:43;;;;;;;19.60;9.80;;;4.50;99.90;;;;;;5012123;28;20423;-59
2021/12/18 12:19:12;;;;;;;19.40;10.70;;;4.40;99.90;;;;;;5008803;28;20419;-60
2021/12/18 12:21:41;;;;;;;22.70;10.93;;;4.40;99.90;;;;;;4994791;28;20443;-61
2021/12/18 12:24:08;;;;;;;28.87;11.00;;;4.40;99.90;;;;;;4992678;28;20416;-61
2021/12/18 12:26:34;;;;;;;20.87;10.90;;;4.40;99.90;;;;;;5017458;28;20471;-60
2021/12/18 12:29:00;;;;;;;35.90;11.97;;;4.30;99.90;;;;;;5012577;28;20434;-61
2021/12/18 12:31:27;;;;;;;22.30;11.07;;;4.30;99.90;;;;;;5010338;28;20525;-61
2021/12/18 12:34:20;;;;;;;23.10;10.47;;;4.30;99.90;;;;;;5011550;28;20431;-59
2021/12/18 12:36:47;;;;;;;23.37;11.17;;;4.30;99.90;;;;;;5012291;28;20854;-61
2021/12/18 12:39:14;;;;;;;18.90;10.53;;;4.30;99.90;;;;;;5012995;28;20466;-61
2021/12/18 12:41:53;;;;;;;20.87;10.43;;;4.30;99.90;;;;;;5011673;28;20947;-60
2021/12/18 12:44:34;;;;;;;23.40;10.90;;;4.30;99.90;;;;;;5007889;28;20492;-61
2021/12/18 12:47:16;;;;;;;23.63;11.40;;;4.30;99.90;;;;;;5011881;28;20653;-60
2021/12/18 12:49:44;;;;;;;22.00;10.27;;;4.30;99.90;;;;;;5011082;28;20701;-61
2021/12/18 12:52:13;;;;;;;24.93;12.20;;;4.30;99.90;;;;;;5004262;28;20438;-61
2021/12/18 12:55:02;;;;;;;21.93;10.47;;;4.30;99.90;;;;;;5008078;28;20533;-61
2021/12/18 12:57:29;;;;;;;27.30;11.70;;;4.30;99.90;;;;;;5012578;28;20459;-59
2021/12/18 12:59:57;;;;;;;23.80;10.70;;;4.30;99.90;;;;;;5023726;28;20901;-60
2021/12/18 13:02:27;;;;;;;28.23;11.77;;;4.30;99.90;;;;;;4998330;28;20443;-62
2021/12/18 13:05:05;;;;;;;27.67;12.33;;;4.30;99.90;;;;;;5011937;28;20435;-61
2021/12/18 13:07:31;;;;;;;25.83;12.67;;;4.40;99.90;;;;;;5004140;28;20469;-61
2021/12/18 13:09:56;;;;;;;31.73;13.30;;;4.40;99.90;;;;;;5008770;28;20932;-59
2021/12/18 13:12:22;;;;;;;29.53;12.20;;;4.40;99.90;;;;;;5009053;28;20422;-61
2021/12/18 13:14:48;;;;;;;24.33;11.33;;;4.40;99.90;;;;;;5011143;28;20177;-60
2021/12/18 13:17:28;;;;;;;23.43;11.90;;;4.50;99.90;;;;;;5015262;28;20204;-61
2021/12/18 13:19:55;;;;;;;30.73;15.03;;;4.50;99.90;;;;;;5001124;28;20186;-61
2021/12/18 13:22:28;;;;;;;22.03;13.23;;;4.60;99.90;;;;;;5009780;28;20438;-59
2021/12/18 13:25:06;;;;;;;30.50;14.50;;;4.70;99.90;;;;;;5009264;28;20438;-61
2021/12/18 13:27:33;;;;;;;30.53;14.63;;;4.80;99.90;;;;;;5008197;28;20505;-61
2021/12/18 13:30:08;;;;;;;26.80;12.70;;;4.80;99.90;;;;;;5010455;28;20492;-61